createdAt,value
2022-10-04T00:01:28.138Z,93803.69
2022-10-04T00:06:31.458Z,93804.88
2022-10-04T00:11:39.769Z,93794.66
2022-10-04T00:16:46.851Z,93777.41
2022-10-04T00:21:58.646Z,93782.91
2022-10-04T00:27:21.672Z,93781.31
2022-10-04T00:32:27.784Z,93768.00
2022-10-04T00:38:01.370Z,93780.91
2022-10-04T00:43:27.486Z,93786.41
2022-10-04T00:48:39.403Z,93773.88
2022-10-04T00:53:48.440Z,93769.97
2022-10-04T00:59:11.603Z,93775.81
2022-10-04T01:04:37.593Z,93770.69
2022-10-04T01:09:53.808Z,93776.13
2022-10-04T01:15:07.822Z,93784.69
2022-10-04T01:20:35.191Z,93761.53
2022-10-04T01:25:48.167Z,93770.97
2022-10-04T01:30:51.708Z,93725.78
2022-10-04T01:35:55.518Z,93776.78
2022-10-04T01:41:03.446Z,93775.59
2022-10-04T01:46:23.693Z,93773.63
2022-10-04T01:51:42.549Z,93767.75
2022-10-04T01:57:22.265Z,93767.75
2022-10-04T02:02:41.735Z,93754.84
2022-10-04T02:07:46.724Z,93764.69
2022-10-04T02:12:55.074Z,93757.22
2022-10-04T02:18:00.742Z,93751.72
2022-10-04T02:23:06.534Z,93759.53
2022-10-04T02:28:15.652Z,93747.03
2022-10-04T02:33:19.037Z,93753.28
2022-10-04T02:38:25.836Z,93752.91
2022-10-04T02:43:59.780Z,93706.63
2022-10-04T02:49:10.709Z,93763.44
2022-10-04T02:54:41.482Z,93765.38
2022-10-04T02:59:45.085Z,93773.19
2022-10-04T03:04:50.834Z,93771.94
2022-10-04T03:09:54.372Z,93775.06
2022-10-04T03:14:57.452Z,93766.84
2022-10-04T03:20:01.520Z,93771.56
2022-10-04T03:25:05.319Z,93785.72
2022-10-04T03:30:14.525Z,93784.94
2022-10-04T03:35:29.308Z,93773.97
2022-10-04T03:40:33.715Z,93781.44
2022-10-04T03:45:36.805Z,93783.00
2022-10-04T03:50:58.895Z,93779.94
2022-10-04T03:56:04.534Z,93789.44
2022-10-04T04:01:14.968Z,93781.66
2022-10-04T04:06:19.847Z,93786.38
2022-10-04T04:11:28.600Z,93786.78
2022-10-04T04:16:32.292Z,93786.38
2022-10-04T04:21:36.878Z,93789.50
2022-10-04T04:26:46.005Z,93805.56
2022-10-04T04:31:58.906Z,93797.72
2022-10-04T04:37:05.278Z,93803.66
2022-10-04T04:42:11.113Z,93813.75
2022-10-04T04:47:34.083Z,93805.13
2022-10-04T04:52:38.450Z,93823.94
2022-10-04T04:57:45.278Z,93819.66
2022-10-04T05:02:58.585Z,93827.50
2022-10-04T05:08:29.100Z,93822.44
2022-10-04T05:13:56.387Z,93826.81
2022-10-04T05:19:18.362Z,93837.41
2022-10-04T05:24:31.789Z,93847.63
2022-10-04T05:29:38.604Z,93859.00
2022-10-04T05:34:49.058Z,93862.59
2022-10-04T05:39:52.559Z,93865.72
2022-10-04T05:44:57.805Z,93871.94
2022-10-04T05:50:01.902Z,93876.56
2022-10-04T05:55:28.979Z,93880.34
2022-10-04T06:00:58.485Z,93889.78
2022-10-04T06:06:28.375Z,93909.78
2022-10-04T06:11:34.086Z,93908.53
2022-10-04T06:16:55.147Z,93909.75
2022-10-04T06:22:16.966Z,93915.59
2022-10-04T06:27:38.051Z,93908.97
2022-10-04T06:33:19.082Z,93901.88
2022-10-04T06:38:56.456Z,93907.72
2022-10-04T06:44:05.588Z,93911.41
2022-10-04T06:49:26.492Z,93911.22
2022-10-04T06:54:45.195Z,93910.91
2022-10-04T07:00:10.118Z,93925.41
2022-10-04T07:05:39.529Z,93926.31
2022-10-04T07:10:59.290Z,93933.03
2022-10-04T07:16:17.571Z,93935.75
2022-10-04T07:21:26.429Z,93944.78
2022-10-04T07:26:50.837Z,93941.47
2022-10-04T07:32:04.566Z,93945.22
2022-10-04T07:37:13.115Z,93952.94
2022-10-04T07:42:22.341Z,93942.28
2022-10-04T07:47:28.173Z,93939.41
2022-10-04T07:52:53.070Z,93943.56
2022-10-04T07:57:59.154Z,93935.69
2022-10-04T08:03:04.780Z,93952.38
2022-10-04T08:08:16.884Z,93943.44
2022-10-04T08:13:46.361Z,93956.41
2022-10-04T08:19:17.463Z,93958.41
2022-10-04T08:24:53.397Z,93953.03
2022-10-04T08:29:59.647Z,93965.28
2022-10-04T08:35:13.279Z,93968.06
2022-10-04T08:40:39.443Z,93976.16
2022-10-04T08:46:03.764Z,93976.31
2022-10-04T08:51:44.798Z,93975.00
2022-10-04T08:57:16.127Z,93979.50
2022-10-04T09:02:43.342Z,93990.53
2022-10-04T09:08:10.307Z,93995.41
2022-10-04T09:13:53.989Z,93999.25
2022-10-04T09:19:19.314Z,93992.97
2022-10-04T09:24:40.295Z,94015.81
2022-10-04T09:30:04.218Z,94013.28
2022-10-04T09:35:41.105Z,94012.66
2022-10-04T09:40:54.199Z,94012.59
2022-10-04T09:46:38.456Z,94023.31
2022-10-04T09:52:05.278Z,94020.94
2022-10-04T09:57:14.409Z,94012.34
2022-10-04T10:02:51.726Z,94019.91
2022-10-04T10:08:26.074Z,94028.56
2022-10-04T10:14:12.971Z,94027.06
2022-10-04T10:19:41.158Z,94033.69
2022-10-04T10:25:16.480Z,94034.06
2022-10-04T10:30:37.828Z,94039.13
2022-10-04T10:36:04.831Z,94035.69
2022-10-04T10:41:20.439Z,94044.81
2022-10-04T10:46:39.898Z,94044.13
2022-10-04T10:52:25.743Z,94053.75
2022-10-04T10:58:06.687Z,94046.25
2022-10-04T11:03:32.395Z,94044.81
2022-10-04T11:09:03.978Z,94040.31
2022-10-04T11:14:28.688Z,94039.75
2022-10-04T11:19:47.668Z,94029.19
2022-10-04T11:25:08.708Z,94030.50
2022-10-04T11:30:27.354Z,94030.97
2022-10-04T11:35:50.040Z,94031.50
2022-10-04T11:41:19.298Z,94025.97
2022-10-04T11:46:36.418Z,94020.72
2022-10-04T11:52:18.557Z,94028.84
2022-10-04T11:57:52.900Z,94019.59
2022-10-04T12:03:34.818Z,94006.03
2022-10-04T12:09:06.056Z,94004.94
2022-10-04T12:14:26.957Z,93995.88
2022-10-04T12:19:30.163Z,93998.78
2022-10-04T12:25:27.161Z,93990.22
2022-10-04T12:30:49.695Z,93987.34
2022-10-04T12:36:32.392Z,93980.00
2022-10-04T12:42:03.351Z,93976.78
2022-10-04T12:47:37.965Z,93985.00
2022-10-04T12:53:01.591Z,93984.59
2022-10-04T12:58:21.361Z,93982.03
2022-10-04T13:03:40.501Z,93985.41
2022-10-04T13:09:10.499Z,93977.31
2022-10-04T13:14:51.041Z,93990.50
2022-10-04T13:20:31.550Z,93986.59
2022-10-04T13:26:01.239Z,93990.56
2022-10-04T13:31:24.218Z,93989.06
2022-10-04T13:36:54.929Z,93995.09
2022-10-04T13:42:19.154Z,94004.59
2022-10-04T13:48:03.829Z,94016.16
2022-10-04T13:54:09.924Z,94017.50
2022-10-04T13:59:21.631Z,94007.13
2022-10-04T14:04:57.588Z,94022.06
2022-10-04T14:10:38.840Z,94029.84
2022-10-04T14:16:25.444Z,94030.53
2022-10-04T14:21:45.183Z,94032.69
2022-10-04T14:27:24.512Z,94038.94
2022-10-04T14:32:56.923Z,94025.91
2022-10-04T14:38:26.768Z,94023.75
2022-10-04T14:44:11.579Z,94024.50
2022-10-04T14:49:37.945Z,94027.50
2022-10-04T14:54:53.592Z,94020.88
2022-10-04T15:00:16.438Z,94025.75
2022-10-04T15:05:31.953Z,94018.78
2022-10-04T15:10:48.603Z,94010.09
2022-10-04T15:16:10.084Z,94022.91
2022-10-04T15:21:40.478Z,94030.03
2022-10-04T15:27:20.893Z,94029.03
2022-10-04T15:32:38.262Z,94027.06
2022-10-04T15:38:03.044Z,94030.09
2022-10-04T15:43:19.779Z,94037.69
2022-10-04T15:48:58.127Z,94044.13
2022-10-04T15:54:34.102Z,94041.03
2022-10-04T15:59:43.093Z,94039.06
2022-10-04T16:05:31.390Z,94052.88
2022-10-04T16:10:56.345Z,94055.28
2022-10-04T16:16:18.265Z,94065.28
2022-10-04T16:21:42.400Z,94085.75
2022-10-04T16:26:51.496Z,94099.13
2022-10-04T16:32:15.530Z,94098.28
2022-10-04T16:37:28.586Z,94094.41
2022-10-04T16:42:50.463Z,94114.72
2022-10-04T16:47:59.106Z,94111.72
2022-10-04T16:53:32.880Z,94125.03
2022-10-04T16:58:43.949Z,94125.03
2022-10-04T17:04:06.543Z,94123.19
2022-10-04T17:09:29.073Z,94146.16
2022-10-04T17:14:56.454Z,94140.41
2022-10-04T17:20:38.721Z,94156.63
2022-10-04T17:26:23.874Z,94168.19
2022-10-04T17:31:52.591Z,94171.31
2022-10-04T17:37:18.360Z,94182.28
2022-10-04T17:42:47.865Z,94185.03
2022-10-04T17:48:19.511Z,94195.34
2022-10-04T17:53:48.144Z,94185.69
2022-10-04T17:58:56.373Z,94193.16
2022-10-04T18:04:26.633Z,94199.84
2022-10-04T18:09:41.084Z,94204.16
2022-10-04T18:14:58.471Z,94211.28
2022-10-04T18:20:27.661Z,94209.75
2022-10-04T18:25:34.077Z,94206.69
2022-10-04T18:30:49.283Z,94222.16
2022-10-04T18:36:05.487Z,94237.09
2022-10-04T18:41:20.958Z,94230.41
2022-10-04T18:46:28.068Z,94251.69
2022-10-04T18:51:40.177Z,94236.31
2022-10-04T18:57:14.189Z,94244.53
2022-10-04T19:02:35.040Z,94251.22
2022-10-04T19:07:45.376Z,94241.38
2022-10-04T19:13:16.390Z,94247.66
2022-10-04T19:18:40.948Z,94258.28
2022-10-04T19:24:08.370Z,94261.00
2022-10-04T19:29:32.698Z,94263.41
2022-10-04T19:34:52.460Z,94261.41
2022-10-04T19:40:34.559Z,94270.94
2022-10-04T19:46:03.782Z,94250.13
2022-10-04T19:51:19.511Z,94274.91
2022-10-04T19:56:29.763Z,94282.00
2022-10-04T20:01:34.028Z,94284.38
2022-10-04T20:06:41.141Z,94282.00
2022-10-04T20:11:44.940Z,94287.13
2022-10-04T20:16:54.413Z,94286.78
2022-10-04T20:22:28.484Z,94288.81
2022-10-04T20:27:36.500Z,94293.19
2022-10-04T20:32:40.660Z,94299.88
2022-10-04T20:38:13.842Z,94300.25
2022-10-04T20:43:20.044Z,94299.09
2022-10-04T20:48:29.967Z,94297.94
2022-10-04T20:53:33.549Z,94308.53
2022-10-04T20:58:37.247Z,94269.31
2022-10-04T21:03:40.400Z,94308.16
2022-10-04T21:08:44.481Z,94310.53
2022-10-04T21:14:00.993Z,94304.69
2022-10-04T21:19:39.102Z,94311.34
2022-10-04T21:24:43.272Z,94306.28
2022-10-04T21:29:47.354Z,94307.50
2022-10-04T21:34:54.089Z,94318.19
2022-10-04T21:39:57.826Z,94320.19
2022-10-04T21:45:01.204Z,94320.16
2022-10-04T21:50:05.136Z,94320.16
2022-10-04T21:55:10.943Z,94317.81
2022-10-04T22:00:14.542Z,94310.75
2022-10-04T22:05:18.198Z,94322.16
2022-10-04T22:10:21.776Z,94327.69
2022-10-04T22:15:27.530Z,94307.22
2022-10-04T22:20:30.716Z,94321.00
2022-10-04T22:25:34.405Z,94317.88
2022-10-04T22:30:37.440Z,94324.25
2022-10-04T22:35:40.918Z,94323.53
2022-10-04T22:40:43.993Z,94335.84
2022-10-04T22:45:47.110Z,94331.53
2022-10-04T22:50:53.737Z,94330.81
2022-10-04T22:55:58.255Z,94325.31
2022-10-04T23:01:01.741Z,94316.31
2022-10-04T23:06:05.001Z,94322.63
2022-10-04T23:11:09.171Z,94323.00
2022-10-04T23:16:22.331Z,94335.94
2022-10-04T23:21:26.655Z,94338.31
2022-10-04T23:26:37.699Z,94338.25
2022-10-04T23:31:40.997Z,94333.06
2022-10-04T23:36:44.885Z,94341.66
2022-10-04T23:41:48.671Z,94337.25
2022-10-04T23:46:52.637Z,94353.28
2022-10-04T23:51:59.931Z,94330.06
2022-10-04T23:57:02.984Z,94342.34
